Time;durP1;ratioP1;P1;durP2;ratioP2;P2;SDS_P1;SDS_P2;PMS_P1;PMS_P2;Temp;Humidity;BMP_temperature;BMP_pressure;BME280_temperature;BME280_humidity;BME280_pressure;Samples;Min_cycle;Max_cycle;Signal;HPM_P1;HPM_P2
2022/10/24 00:00:42;;;;;;;9.98;6.45;;;;;;;12.81;100.00;100320.25;4969925;28;20118;-84
2022/10/24 00:03:09;;;;;;;10.13;6.13;;;;;;;12.77;100.00;100327.41;4978319;28;20065;-81
2022/10/24 00:05:40;;;;;;;9.43;6.43;;;;;;;12.79;100.00;100317.66;4997957;28;20124;-82
2022/10/24 00:08:07;;;;;;;6.85;5.18;;;;;;;12.76;100.00;100323.03;4973311;28;20041;-80
2022/10/24 00:10:35;;;;;;;8.88;5.70;;;;;;;12.76;100.00;100316.88;4988577;28;20046;-82
2022/10/24 00:13:03;;;;;;;12.68;7.18;;;;;;;12.75;100.00;100304.53;5010197;28;20082;-83
2022/10/24 00:15:29;;;;;;;11.30;6.38;;;;;;;12.64;100.00;100289.88;4997298;28;20034;-83
2022/10/24 00:17:56;;;;;;;9.32;6.40;;;;;;;12.64;100.00;100289.88;4993890;28;20156;-81
2022/10/24 00:20:23;;;;;;;12.27;7.70;;;;;;;12.53;100.00;100288.53;4962947;28;20491;-82
2022/10/24 00:22:49;;;;;;;9.23;6.82;;;;;;;12.56;100.00;100280.47;5010175;28;20054;-82
2022/10/24 00:25:19;;;;;;;8.65;5.90;;;;;;;12.50;100.00;100275.38;4977703;28;20049;-82
2022/10/24 00:27:46;;;;;;;10.55;6.13;;;;;;;12.48;100.00;100271.91;4977669;28;20096;-83
2022/10/24 00:30:13;;;;;;;9.10;6.25;;;;;;;12.44;100.00;100259.69;4993115;28;20041;-84
2022/10/24 00:32:40;;;;;;;10.32;6.13;;;;;;;12.40;100.00;100251.84;4989642;28;20036;-84
2022/10/24 00:35:09;;;;;;;12.38;6.20;;;;;;;12.32;100.00;100240.66;4990879;28;20050;-85
2022/10/24 00:37:35;;;;;;;9.23;6.40;;;;;;;12.24;100.00;100213.56;5011037;28;20112;-82
2022/10/24 00:40:05;;;;;;;11.65;6.57;;;;;;;12.36;100.00;100210.50;4994880;28;20050;-82
2022/10/24 00:42:32;;;;;;;9.10;6.50;;;;;;;12.57;100.00;100222.13;4989630;28;20068;-82
2022/10/24 00:45:00;;;;;;;11.60;7.10;;;;;;;12.45;100.00;100233.16;4977809;28;20038;-84
2022/10/24 00:47:27;;;;;;;7.00;5.25;;;;;;;12.34;100.00;100233.50;4974711;28;20085;-82
2022/10/24 00:50:00;;;;;;;9.55;6.55;;;;;;;12.42;100.00;100219.13;4965021;28;20033;-82
2022/10/24 00:52:29;;;;;;;8.13;6.72;;;;;;;12.47;100.00;100236.63;4990778;28;20057;-82
2022/10/24 00:54:57;;;;;;;11.18;6.75;;;;;;;12.40;100.00;100256.28;4994309;28;20041;-82
2022/10/24 00:57:35;;;;;;;10.15;6.80;;;;;;;12.50;100.00;100254.19;4972367;28;20105;-83
2022/10/24 01:00:18;;;;;;;7.85;6.13;;;;;;;12.31;100.00;100246.00;4991833;28;20140;-87
2022/10/24 01:02:44;;;;;;;9.20;6.63;;;;;;;12.27;100.00;100277.00;4977538;28;20041;-84
2022/10/24 01:05:12;;;;;;;10.48;6.55;;;;;;;12.25;100.00;100288.59;4992684;28;20079;-86
2022/10/24 01:07:52;;;;;;;9.18;6.38;;;;;;;12.24;100.00;100278.91;5019011;23;20052;-81
2022/10/24 01:10:32;;;;;;;9.23;6.30;;;;;;;12.25;100.00;100280.63;5009940;23;20038;-88
2022/10/24 01:18:46;;;;;;;10.13;7.05;;;;;;;12.23;100.00;100306.31;4980438;28;20034;-81
2022/10/24 01:21:24;;;;;;;9.80;7.15;;;;;;;12.22;100.00;100321.34;4980206;28;20049;-81
2022/10/24 01:24:18;;;;;;;11.35;7.35;;;;;;;12.19;100.00;100309.97;4941561;28;20047;-81
2022/10/24 01:27:06;;;;;;;10.30;6.75;;;;;;;12.18;100.00;100306.44;4968121;28;20578;-81
2022/10/24 01:29:46;;;;;;;9.98;6.78;;;;;;;12.21;100.00;100298.44;4975800;28;20065;-82
2022/10/24 01:32:36;;;;;;;10.27;7.40;;;;;;;12.22;100.00;100292.22;4993655;28;20042;-82
2022/10/24 01:35:34;;;;;;;14.13;8.32;;;;;;;12.20;100.00;100286.09;4981582;28;20038;-81
2022/10/24 01:38:13;;;;;;;12.13;7.47;;;;;;;12.23;100.00;100280.69;4956950;28;20053;-82
2022/10/24 01:40:45;;;;;;;10.65;6.70;;;;;;;12.18;100.00;100284.41;4977290;28;20414;-82
2022/10/24 01:43:14;;;;;;;11.98;6.70;;;;;;;12.25;100.00;100283.28;4943381;28;20050;-81
2022/10/24 01:45:43;;;;;;;12.63;7.65;;;;;;;12.25;100.00;100276.22;4957394;28;20407;-81
2022/10/24 01:48:15;;;;;;;11.63;7.38;;;;;;;12.26;100.00;100261.19;4939801;28;20073;-82
2022/10/24 01:50:44;;;;;;;10.57;6.40;;;;;;;12.20;100.00;100254.31;4936168;28;20043;-81
2022/10/24 01:53:11;;;;;;;12.82;7.65;;;;;;;12.29;100.00;100248.72;4938939;28;20098;-82
2022/10/24 01:55:38;;;;;;;9.98;7.50;;;;;;;12.17;100.00;100246.47;4940690;28;20046;-81
2022/10/24 01:58:06;;;;;;;10.93;7.05;;;;;;;12.17;100.00;100249.13;4970930;28;20042;-84
2022/10/24 02:00:34;;;;;;;9.88;7.30;;;;;;;12.19;100.00;100243.75;4972728;28;20297;-82
2022/10/24 02:03:05;;;;;;;13.60;7.22;;;;;;;12.22;100.00;100241.03;4962405;28;20046;-81
2022/10/24 02:05:35;;;;;;;10.75;6.90;;;;;;;12.24;100.00;100258.59;4976588;28;20042;-82
2022/10/24 02:08:05;;;;;;;11.68;6.90;;;;;;;12.20;100.00;100267.56;4959602;28;20042;-81
2022/10/24 02:10:46;;;;;;;12.75;7.90;;;;;;;12.23;100.00;100263.94;4970168;28;20042;-81
2022/10/24 02:13:31;;;;;;;13.23;8.68;;;;;;;12.30;100.00;100261.03;4961324;28;20100;-82
2022/10/24 02:16:00;;;;;;;12.32;8.27;;;;;;;12.37;100.00;100248.47;4968188;28;20065;-82
2022/10/24 02:18:27;;;;;;;15.73;8.65;;;;;;;12.38;100.00;100253.69;4961156;28;20038;-82
2022/10/24 02:21:02;;;;;;;14.23;7.10;;;;;;;12.32;100.00;100250.38;4972120;28;20133;-82
2022/10/24 02:23:42;;;;;;;15.15;8.35;;;;;;;12.34;100.00;100254.69;4970996;28;20047;-81
2022/10/24 02:26:24;;;;;;;11.68;7.70;;;;;;;12.27;100.00;100250.53;4958659;28;20042;-82
2022/10/24 02:28:52;;;;;;;9.65;7.63;;;;;;;12.43;100.00;100269.41;4964193;28;20408;-82
2022/10/24 02:31:21;;;;;;;10.68;7.35;;;;;;;12.38;100.00;100259.00;4980118;28;20052;-82
2022/10/24 02:33:50;;;;;;;13.23;8.68;;;;;;;12.39;100.00;100250.13;4973726;28;20052;-83
2022/10/24 02:36:21;;;;;;;13.02;9.50;;;;;;;12.44;100.00;100243.78;4955163;28;20046;-83
2022/10/24 02:38:49;;;;;;;13.02;9.43;;;;;;;12.45;100.00;100246.41;4991259;28;20131;-82
2022/10/24 02:41:28;;;;;;;11.35;8.35;;;;;;;12.43;100.00;100252.66;4996071;28;20049;-83
2022/10/24 02:43:55;;;;;;;14.50;10.05;;;;;;;12.51;100.00;100243.53;4975612;28;20046;-84
2022/10/24 02:46:22;;;;;;;14.95;8.90;;;;;;;12.50;100.00;100239.16;4985706;28;20042;-82
2022/10/24 02:48:53;;;;;;;15.75;9.48;;;;;;;12.50;100.00;100227.69;4977091;28;20042;-82
2022/10/24 02:51:26;;;;;;;14.20;10.25;;;;;;;12.51;100.00;100221.47;4976498;28;20114;-85
2022/10/24 02:53:53;;;;;;;17.85;10.00;;;;;;;12.60;100.00;100229.94;4962909;28;20050;-84
2022/10/24 02:56:20;;;;;;;14.68;9.55;;;;;;;12.56;100.00;100224.81;4967419;28;20515;-84
2022/10/24 02:58:46;;;;;;;13.63;9.30;;;;;;;12.55;100.00;100221.31;4987861;28;20042;-84
2022/10/24 03:01:13;;;;;;;12.93;9.43;;;;;;;12.51;100.00;100221.47;4943043;28;20039;-84
2022/10/24 03:03:40;;;;;;;17.60;9.63;;;;;;;12.50;100.00;100217.94;4958811;28;20069;-84
2022/10/24 03:06:06;;;;;;;15.35;9.25;;;;;;;12.52;100.00;100221.41;4957238;28;20034;-84
2022/10/24 03:08:33;;;;;;;12.98;9.02;;;;;;;12.53;100.00;100217.00;4944299;28;20041;-84
2022/10/24 03:11:00;;;;;;;13.90;9.35;;;;;;;12.52;100.00;100217.88;4955979;28;20041;-84
2022/10/24 03:13:27;;;;;;;13.52;9.40;;;;;;;12.51;100.00;100222.31;4975583;28;20096;-84
2022/10/24 03:15:54;;;;;;;15.38;9.48;;;;;;;12.46;100.00;100218.13;4966559;28;20115;-84
2022/10/24 03:18:20;;;;;;;14.20;9.30;;;;;;;12.45;100.00;100211.97;4974001;28;20155;-83
2022/10/24 03:20:47;;;;;;;15.57;9.48;;;;;;;12.54;100.00;100211.63;4946660;28;20096;-84
2022/10/24 03:23:15;;;;;;;15.30;9.60;;;;;;;12.57;100.00;100213.31;4946068;28;20050;-84
2022/10/24 03:25:41;;;;;;;16.52;9.32;;;;;;;12.53;100.00;100217.88;4943028;28;20046;-84
2022/10/24 03:28:08;;;;;;;15.88;9.80;;;;;;;12.58;100.00;100220.34;4942213;28;20503;-84
2022/10/24 03:30:35;;;;;;;13.18;9.48;;;;;;;12.56;100.00;100219.53;4948529;28;20051;-83
2022/10/24 03:33:02;;;;;;;15.32;9.63;;;;;;;12.58;100.00;100215.03;4940708;28;20050;-83
2022/10/24 03:35:28;;;;;;;14.77;9.68;;;;;;;12.61;100.00;100215.81;4986307;28;20039;-83
2022/10/24 03:37:55;;;;;;;14.45;10.05;;;;;;;12.65;100.00;100224.50;4976692;28;20454;-82
2022/10/24 03:40:21;;;;;;;16.42;10.68;;;;;;;12.75;100.00;100225.03;4943727;28;20042;-83
2022/10/24 03:42:48;;;;;;;16.98;10.93;;;;;;;12.73;100.00;100227.75;4938121;28;20070;-84
2022/10/24 03:45:15;;;;;;;16.70;9.52;;;;;;;12.65;100.00;100222.72;4956566;28;20042;-84
2022/10/24 03:47:41;;;;;;;15.85;9.93;;;;;;;12.67;100.00;100214.69;4962072;28;20062;-83
2022/10/24 03:50:08;;;;;;;17.02;10.75;;;;;;;12.61;100.00;100212.25;4978825;28;20038;-84
2022/10/24 03:52:35;;;;;;;15.77;9.50;;;;;;;12.56;100.00;100214.22;4945793;28;20042;-84
2022/10/24 03:55:02;;;;;;;13.73;9.90;;;;;;;12.55;100.00;100218.66;4957359;28;20038;-83
2022/10/24 03:57:28;;;;;;;16.23;9.98;;;;;;;12.44;100.00;100218.16;4941438;28;20514;-84
2022/10/24 03:59:56;;;;;;;14.73;9.38;;;;;;;12.53;100.00;100228.47;4955797;28;20295;-83
2022/10/24 04:02:23;;;;;;;13.25;9.60;;;;;;;12.62;100.00;100220.19;4958366;28;20089;-84
2022/10/24 04:04:49;;;;;;;14.00;9.85;;;;;;;12.49;100.00;100218.88;4953933;28;20046;-84
2022/10/24 04:07:16;;;;;;;14.52;8.60;;;;;;;12.50;100.00;100222.38;4957349;28;20049;-83
2022/10/24 04:09:43;;;;;;;15.38;10.27;;;;;;;12.51;100.00;100226.75;4941697;28;20229;-84
2022/10/24 04:12:10;;;;;;;13.73;9.15;;;;;;;12.43;100.00;100220.88;4973972;28;20562;-84
2022/10/24 04:14:36;;;;;;;13.75;9.32;;;;;;;12.35;100.00;100219.34;4957993;28;20105;-83
2022/10/24 04:17:03;;;;;;;16.05;9.32;;;;;;;12.30;100.00;100217.78;4975304;28;20046;-84
2022/10/24 04:19:30;;;;;;;14.13;8.48;;;;;;;12.34;100.00;100214.97;4957481;28;20082;-83
2022/10/24 04:21:56;;;;;;;15.63;9.73;;;;;;;12.29;100.00;100219.59;4969999;28;20038;-83
2022/10/24 04:24:23;;;;;;;13.90;9.25;;;;;;;12.29;100.00;100219.59;4942454;28;20479;-83
2022/10/24 04:26:49;;;;;;;17.55;9.77;;;;;;;12.27;100.00;100221.38;4941493;28;20482;-83
2022/10/24 04:29:16;;;;;;;12.10;8.70;;;;;;;12.19;100.00;100219.94;4939999;28;20073;-83
2022/10/24 04:31:43;;;;;;;16.00;10.13;;;;;;;12.17;100.00;100221.75;4952820;28;20061;-83
2022/10/24 04:34:09;;;;;;;16.33;9.07;;;;;;;12.08;100.00;100217.66;4964577;28;20136;-83
2022/10/24 04:36:36;;;;;;;13.35;8.85;;;;;;;11.99;100.00;100207.38;4958859;28;20074;-84
2022/10/24 04:39:03;;;;;;;14.05;10.20;;;;;;;11.98;100.00;100210.94;4961952;28;20088;-83
2022/10/24 04:41:30;;;;;;;12.63;8.15;;;;;;;11.90;100.00;100215.63;4941750;28;20061;-84
2022/10/24 04:43:57;;;;;;;17.05;8.70;;;;;;;11.88;100.00;100220.09;4958249;28;20049;-84
2022/10/24 04:46:23;;;;;;;11.57;8.23;;;;;;;11.86;100.00;100209.56;4974904;28;20038;-83
2022/10/24 04:48:52;;;;;;;11.18;8.68;;;;;;;11.78;100.00;100206.28;4972810;28;20046;-84
2022/10/24 04:51:20;;;;;;;12.20;8.13;;;;;;;11.86;100.00;100212.22;4948221;28;20495;-83
2022/10/24 04:53:49;;;;;;;12.50;7.90;;;;;;;11.76;100.00;100200.16;4956779;28;20419;-84
2022/10/24 04:56:17;;;;;;;12.20;7.50;;;;;;;11.67;100.00;100211.91;4936676;28;20050;-84
2022/10/24 04:58:44;;;;;;;9.88;7.15;;;;;;;11.65;100.00;100203.16;4974313;28;20492;-83
2022/10/24 05:01:11;;;;;;;13.10;7.45;;;;;;;11.58;100.00;100212.19;4942937;28;20298;-85
2022/10/24 05:03:37;;;;;;;11.75;7.15;;;;;;;11.53;100.00;100214.13;4958307;28;20415;-84
2022/10/24 05:06:05;;;;;;;9.68;6.40;;;;;;;11.48;100.00;100213.41;4955987;28;20346;-84
2022/10/24 05:08:32;;;;;;;13.48;7.57;;;;;;;11.47;100.00;100212.53;4955879;28;20050;-84
2022/10/24 05:10:58;;;;;;;11.70;7.55;;;;;;;11.40;100.00;100212.78;4938288;28;20039;-83
2022/10/24 05:13:25;;;;;;;10.30;7.00;;;;;;;11.34;100.00;100202.38;4957977;28;20042;-84
2022/10/24 05:15:55;;;;;;;12.07;7.25;;;;;;;11.33;100.00;100205.94;4941917;28;20043;-83
2022/10/24 05:18:22;;;;;;;9.93;6.75;;;;;;;11.24;100.00;100205.31;4957414;28;20046;-84
2022/10/24 05:20:48;;;;;;;10.85;7.13;;;;;;;11.22;100.00;100204.50;4957529;28;20543;-84
2022/10/24 05:23:15;;;;;;;13.80;8.88;;;;;;;11.19;100.00;100204.59;4958094;28;20042;-83
2022/10/24 05:25:42;;;;;;;12.40;8.00;;;;;;;11.12;100.00;100221.56;4948867;28;20042;-83
2022/10/24 05:28:09;;;;;;;13.77;7.80;;;;;;;11.17;100.00;100226.69;4941063;28;20472;-82
2022/10/24 05:30:36;;;;;;;9.70;6.70;;;;;;;11.11;100.00;100230.41;4972949;28;20065;-82
2022/10/24 05:33:04;;;;;;;12.43;7.10;;;;;;;11.05;100.00;100222.63;4943818;28;21635;-83
2022/10/24 05:35:31;;;;;;;11.90;6.18;;;;;;;11.03;100.00;100221.81;4946994;28;20083;-83
2022/10/24 05:37:57;;;;;;;9.80;6.88;;;;;;;10.99;100.00;100214.88;4949874;28;20042;-84
2022/10/24 05:40:24;;;;;;;8.80;6.80;;;;;;;11.08;100.00;100213.75;4968230;28;20041;-83
2022/10/24 05:42:51;;;;;;;10.85;7.03;;;;;;;11.00;100.00;100217.47;4981689;28;20525;-83
2022/10/24 05:45:18;;;;;;;9.75;6.63;;;;;;;10.97;100.00;100219.34;4967688;28;20069;-84
2022/10/24 05:47:45;;;;;;;11.57;7.20;;;;;;;10.94;100.00;100222.09;4971797;28;20078;-83
2022/10/24 05:50:12;;;;;;;10.40;7.20;;;;;;;10.90;100.00;100226.59;4957578;28;20089;-83
2022/10/24 05:52:41;;;;;;;9.50;6.45;;;;;;;10.87;100.00;100223.19;4961546;28;20046;-84
2022/10/24 05:55:12;;;;;;;10.27;6.45;;;;;;;10.88;100.00;100219.63;4962152;28;20120;-83
2022/10/24 05:57:43;;;;;;;10.70;6.80;;;;;;;10.91;100.00;100219.53;4977050;28;20573;-83
2022/10/24 06:00:13;;;;;;;11.65;7.25;;;;;;;10.85;100.00;100217.94;4967827;28;20136;-83
2022/10/24 06:02:40;;;;;;;9.60;6.47;;;;;;;10.85;100.00;100227.66;4970697;28;20050;-83
2022/10/24 06:05:11;;;;;;;9.60;6.53;;;;;;;10.86;100.00;100237.31;4943815;28;20092;-83
2022/10/24 06:07:40;;;;;;;8.35;5.70;;;;;;;10.89;100.00;100245.13;4947252;28;20077;-84
2022/10/24 06:10:08;;;;;;;7.53;6.00;;;;;;;10.94;100.00;100241.47;4943719;28;20034;-82
2022/10/24 06:12:36;;;;;;;9.75;5.43;;;;;;;10.89;100.00;100238.06;4963343;28;20521;-82
2022/10/24 06:15:04;;;;;;;9.02;6.25;;;;;;;10.97;100.00;100235.22;4968596;28;20042;-83
2022/10/24 06:17:32;;;;;;;9.77;6.55;;;;;;;11.11;100.00;100242.75;4959585;28;20050;-83
2022/10/24 06:19:59;;;;;;;8.73;5.72;;;;;;;11.09;100.00;100228.69;4963039;28;20306;-84
2022/10/24 06:22:28;;;;;;;8.32;6.38;;;;;;;11.15;100.00;100231.16;4952181;28;20046;-83
2022/10/24 06:24:55;;;;;;;9.85;6.10;;;;;;;11.16;100.00;100238.19;4995919;28;20068;-83
2022/10/24 06:27:23;;;;;;;8.93;6.00;;;;;;;11.15;100.00;100229.38;4963914;28;20052;-83
2022/10/24 06:29:49;;;;;;;9.68;5.68;;;;;;;11.21;100.00;100215.97;4970054;28;20030;-83
2022/10/24 06:32:16;;;;;;;8.70;6.25;;;;;;;11.21;100.00;100213.34;4941760;28;20051;-83
2022/10/24 06:34:43;;;;;;;9.45;5.53;;;;;;;11.25;100.00;100203.53;4941334;28;20049;-83
2022/10/24 06:37:10;;;;;;;9.48;5.63;;;;;;;11.24;100.00;100197.38;4966012;28;20454;-83
2022/10/24 06:39:37;;;;;;;9.23;5.78;;;;;;;11.23;100.00;100198.28;4984706;28;20246;-83
2022/10/24 06:42:04;;;;;;;8.02;5.43;;;;;;;11.23;100.00;100202.72;4969094;28;20038;-83
2022/10/24 06:44:30;;;;;;;7.35;5.00;;;;;;;11.27;100.00;100201.72;4956937;28;20050;-83
2022/10/24 06:46:57;;;;;;;10.02;6.22;;;;;;;11.27;100.00;100196.44;4985319;28;20042;-83
2022/10/24 06:49:24;;;;;;;7.20;4.88;;;;;;;11.32;100.00;100191.84;4946343;28;20492;-84
2022/10/24 06:51:51;;;;;;;8.35;5.65;;;;;;;11.32;100.00;100191.84;4945009;28;20068;-83
2022/10/24 06:54:17;;;;;;;7.80;5.60;;;;;;;11.36;100.00;100208.50;4959684;28;20046;-83
2022/10/24 06:56:44;;;;;;;9.05;6.00;;;;;;;11.36;100.00;100203.22;4953386;28;20055;-83
2022/10/24 06:59:14;;;;;;;8.38;5.63;;;;;;;11.45;100.00;100206.44;4957497;28;20128;-83
2022/10/24 07:01:41;;;;;;;7.47;5.18;;;;;;;11.48;100.00;100218.69;4956334;28;20447;-83
2022/10/24 07:04:08;;;;;;;6.82;5.18;;;;;;;11.53;100.00;100222.94;4960351;28;20073;-83
2022/10/24 07:06:35;;;;;;;7.93;4.70;;;;;;;11.55;100.00;100213.16;4956952;28;20070;-83
2022/10/24 07:09:04;;;;;;;8.43;5.25;;;;;;;11.58;100.00;100214.84;4957598;28;20054;-83
2022/10/24 07:11:32;;;;;;;6.75;4.75;;;;;;;11.62;100.00;100218.28;4966835;28;20034;-84
2022/10/24 07:13:59;;;;;;;9.45;4.97;;;;;;;11.70;100.00;100219.75;4964986;28;20526;-83
2022/10/24 07:16:29;;;;;;;7.72;5.32;;;;;;;11.79;100.00;100231.81;4960321;28;20504;-83
2022/10/24 07:18:55;;;;;;;8.00;5.28;;;;;;;11.84;100.00;100224.63;4944471;28;20128;-83
2022/10/24 07:21:25;;;;;;;8.35;6.35;;;;;;;11.88;100.00;100233.34;4941492;28;20034;-84
2022/10/24 07:23:52;;;;;;;9.98;5.82;;;;;;;12.05;100.00;100228.34;4979647;28;20053;-83
2022/10/24 07:26:20;;;;;;;9.13;5.22;;;;;;;12.15;100.00;100237.72;4974921;28;20515;-83
2022/10/24 07:28:52;;;;;;;6.35;4.85;;;;;;;12.24;100.00;100248.00;4951784;28;20078;-84
2022/10/24 07:31:24;;;;;;;6.60;4.85;;;;;;;12.27;100.00;100247.88;4952679;28;20050;-84
2022/10/24 07:33:52;;;;;;;8.57;5.43;;;;;;;12.39;100.00;100257.22;4943648;28;20114;-84
2022/10/24 07:36:23;;;;;;;11.50;5.53;;;;;;;12.44;100.00;100257.03;4941890;28;20053;-83
2022/10/24 07:38:53;;;;;;;7.72;4.80;;;;;;;12.45;100.00;100249.06;4966493;28;20392;-83
2022/10/24 07:41:20;;;;;;;7.93;5.53;;;;;;;12.52;100.00;100249.69;4962937;28;20122;-83
2022/10/24 07:43:47;;;;;;;7.03;4.82;;;;;;;12.55;100.00;100246.94;4943279;28;20050;-83
2022/10/24 07:46:16;;;;;;;8.82;4.97;;;;;;;12.60;100.00;100259.09;4940668;28;20073;-84
2022/10/24 07:48:43;;;;;;;7.45;5.10;;;;;;;12.70;100.00;100258.81;4974051;28;20042;-83
2022/10/24 07:51:12;;;;;;;9.93;5.82;;;;;;;12.80;100.00;100254.91;4957355;28;20116;-83
2022/10/24 07:53:40;;;;;;;9.48;5.68;;;;;;;12.84;100.00;100257.38;4946976;28;20038;-82
2022/10/24 07:56:09;;;;;;;8.73;5.05;;;;;;;12.97;100.00;100255.16;4952556;28;20050;-83
2022/10/24 07:58:36;;;;;;;8.27;5.47;;;;;;;13.10;100.00;100264.34;4954721;28;20051;-83
2022/10/24 08:01:08;;;;;;;8.20;4.85;;;;;;;13.14;100.00;100258.03;4976917;28;20515;-83
2022/10/24 08:03:35;;;;;;;6.22;4.57;;;;;;;13.16;100.00;100266.78;4961397;28;20057;-82
2022/10/24 08:06:08;;;;;;;7.15;4.95;;;;;;;13.26;100.00;100259.38;4942333;28;20129;-83
2022/10/24 08:08:35;;;;;;;8.10;4.45;;;;;;;13.27;100.00;100261.09;4943551;28;20045;-82
2022/10/24 08:11:17;;;;;;;9.48;5.78;;;;;;;13.34;100.00;100262.59;4942520;28;20400;-83
2022/10/24 08:13:44;;;;;;;7.47;4.88;;;;;;;13.48;100.00;100264.75;4961679;28;20038;-83
2022/10/24 08:16:13;;;;;;;6.25;4.28;;;;;;;13.53;100.00;100257.44;4969680;28;20046;-85
2022/10/24 08:18:45;;;;;;;6.10;4.47;;;;;;;13.61;100.00;100249.19;4952906;28;20042;-81
2022/10/24 08:21:17;;;;;;;8.32;5.18;;;;;;;13.68;100.00;100246.25;4963697;28;20038;-85
2022/10/24 08:23:53;;;;;;;7.68;4.45;;;;;;;13.65;100.00;100242.84;4961637;28;20042;-84
2022/10/24 08:26:39;;;;;;;9.65;4.80;;;;;;;13.71;100.00;100238.16;4939007;28;20281;-83
2022/10/24 08:29:10;;;;;;;9.40;5.30;;;;;;;13.84;100.00;100232.34;4962378;28;20494;-84
2022/10/24 08:32:11;;;;;;;9.65;4.97;;;;;;;13.84;100.00;100222.59;4967060;28;20038;-84
2022/10/24 08:34:43;;;;;;;9.57;4.68;;;;;;;13.93;100.00;100213.38;4950158;28;20049;-84
2022/10/24 08:37:09;;;;;;;8.40;4.60;;;;;;;14.07;100.00;100221.66;4955760;28;20097;-85
2022/10/24 08:40:03;;;;;;;7.25;4.53;;;;;;;14.08;100.00;100226.91;4964374;28;20422;-84
2022/10/24 08:43:01;;;;;;;8.32;4.60;;;;;;;14.10;100.00;100221.50;4941128;28;20535;-84
2022/10/24 08:45:54;;;;;;;9.90;4.97;;;;;;;14.23;100.00;100213.91;4955149;28;20034;-85
2022/10/24 08:48:30;;;;;;;9.45;4.47;;;;;;;14.22;100.00;100223.66;4955810;28;20049;-84
2022/10/24 08:51:29;;;;;;;8.80;4.43;;;;;;;14.31;100.00;100222.41;4944722;28;20038;-84
2022/10/24 08:53:57;;;;;;;6.57;4.70;;;;;;;14.35;100.00;100222.19;4970321;28;20437;-84
2022/10/24 08:56:34;;;;;;;9.55;4.80;;;;;;;14.42;100.00;100227.25;4958875;28;20483;-85
2022/10/24 08:59:13;;;;;;;7.68;4.35;;;;;;;14.53;100.00;100219.72;4970858;28;20423;-85
2022/10/24 09:01:47;;;;;;;10.70;4.47;;;;;;;14.57;100.00;100222.19;4960339;28;20391;-85
2022/10/24 09:04:24;;;;;;;8.88;4.13;;;;;;;14.69;100.00;100202.16;4971599;28;20116;-86
2022/10/24 09:06:55;;;;;;;8.05;4.78;;;;;;;14.63;100.00;100205.97;4950089;28;20043;-85
2022/10/24 09:09:37;;;;;;;10.52;4.63;;;;;;;14.75;100.00;100203.69;4959599;28;20050;-85
2022/10/24 09:12:12;;;;;;;7.50;4.10;;;;;;;14.78;100.00;100207.06;4960521;28;20571;-86
2022/10/24 09:14:41;;;;;;;6.97;3.95;;;;;;;14.85;100.00;100216.47;4966924;28;20034;-85
2022/10/24 09:17:18;;;;;;;8.55;3.90;;;;;;;14.92;100.00;100209.09;4983019;28;20125;-85
2022/10/24 09:20:19;;;;;;;8.23;3.80;;;;;;;15.09;100.00;100211.84;4989224;28;20035;-84
2022/10/24 09:22:46;;;;;;;7.65;4.07;;;;;;;15.25;100.00;100205.81;4931120;28;20229;-84
2022/10/24 09:25:16;;;;;;;11.32;3.78;;;;;;;15.43;100.00;100210.25;4947336;28;20039;-85
2022/10/24 09:27:43;;;;;;;10.38;3.97;;;;;;;15.39;100.00;100211.38;4966554;28;20046;-84
2022/10/24 09:30:23;;;;;;;6.82;3.90;;;;;;;15.48;100.00;100209.13;4966664;28;20057;-84
2022/10/24 09:32:58;;;;;;;7.60;3.83;;;;;;;15.64;100.00;100213.75;4965188;28;20488;-84
2022/10/24 09:35:28;;;;;;;8.90;3.40;;;;;;;15.67;100.00;100218.91;4965711;28;20058;-83
2022/10/24 09:38:32;;;;;;;8.10;4.10;;;;;;;15.75;100.00;100206.94;4965932;28;20053;-84
2022/10/24 09:41:02;;;;;;;6.28;3.28;;;;;;;15.75;100.00;100209.63;4966181;28;20066;-84
2022/10/24 09:43:46;;;;;;;7.32;3.78;;;;;;;15.86;100.00;100210.88;4949326;28;20054;-85
2022/10/24 09:46:44;;;;;;;5.80;3.60;;;;;;;15.93;100.00;100209.66;4960223;28;20141;-83
2022/10/24 09:49:21;;;;;;;9.25;3.72;;;;;;;16.03;100.00;100211.75;4962740;28;20056;-82
2022/10/24 09:51:58;;;;;;;9.70;4.03;;;;;;;16.15;100.00;100207.63;4984503;28;20092;-85
2022/10/24 09:54:28;;;;;;;7.15;3.38;;;;;;;16.42;100.00;100218.69;4994477;28;20065;-83
2022/10/24 09:57:10;;;;;;;8.00;4.03;;;;;;;16.60;100.00;100212.41;4967541;28;20046;-83
2022/10/24 09:59:41;;;;;;;7.35;3.67;;;;;;;16.78;100.00;100207.06;4969077;28;20042;-85
2022/10/24 10:02:23;;;;;;;8.10;3.70;;;;;;;16.77;100.00;100198.19;4970631;28;20238;-85
2022/10/24 10:05:18;;;;;;;8.68;3.25;;;;;;;16.84;100.00;100201.41;4967454;28;20044;-86
2022/10/24 10:07:47;;;;;;;5.95;3.55;;;;;;;16.84;100.00;100198.75;4961691;28;20089;-83
2022/10/24 10:10:17;;;;;;;9.45;3.78;;;;;;;16.94;100.00;100199.09;4960427;28;20054;-85
2022/10/24 10:12:54;;;;;;;8.50;3.42;;;;;;;17.00;100.00;100196.09;5011363;28;20042;-83
2022/10/24 10:15:35;;;;;;;9.27;3.78;;;;;;;17.09;100.00;100192.94;4970293;28;20038;-86
2022/10/24 10:18:13;;;;;;;6.65;3.08;;;;;;;17.09;100.00;100184.94;4946888;28;20547;-83
2022/10/24 10:20:41;;;;;;;7.55;3.47;;;;;;;17.10;100.00;100197.31;4963113;28;20038;-83
2022/10/24 10:23:18;;;;;;;11.00;3.55;;;;;;;17.17;100.00;100188.03;4963961;28;20050;-84
2022/10/24 10:25:45;;;;;;;5.70;3.15;;;;;;;17.11;100.00;100183.88;4944925;28;20539;-82
2022/10/24 10:28:22;;;;;;;5.97;2.92;;;;;;;17.14;100.00;100170.34;4962631;28;20496;-84
2022/10/24 10:30:53;;;;;;;5.80;3.00;;;;;;;17.02;100.00;100162.19;4962673;28;20101;-84
2022/10/24 10:33:28;;;;;;;8.75;3.67;;;;;;;17.02;100.00;100171.06;4979028;28;20053;-83
2022/10/24 10:36:04;;;;;;;6.68;3.85;;;;;;;17.08;100.00;100152.03;5142031;23;20560;-81
2022/10/24 10:38:45;;;;;;;8.07;3.08;;;;;;;17.03;100.00;100158.56;5012353;28;20585;-83
2022/10/24 10:41:46;;;;;;;8.57;4.00;;;;;;;17.06;100.00;100147.72;4995716;28;20483;-82
2022/10/24 10:44:24;;;;;;;6.70;3.22;;;;;;;17.14;100.00;100170.34;4995782;28;20046;-83
2022/10/24 10:47:05;;;;;;;6.88;3.33;;;;;;;17.24;100.00;100165.41;5010640;28;20139;-81
2022/10/24 10:49:44;;;;;;;9.10;4.00;;;;;;;17.30;100.00;100172.19;4979564;28;20445;-81
2022/10/24 10:52:12;;;;;;;8.10;3.60;;;;;;;17.34;100.00;100168.41;4994591;28;20034;-81
2022/10/24 10:55:00;;;;;;;8.23;3.70;;;;;;;17.50;100.00;100185.28;5012967;28;20121;-81
2022/10/24 10:57:37;;;;;;;8.32;3.20;;;;;;;17.52;100.00;100174.50;4983160;28;20407;-82
2022/10/24 11:00:10;;;;;;;8.35;2.75;;;;;;;17.70;100.00;100179.69;5014866;23;20076;-79
2022/10/24 11:02:53;;;;;;;6.75;3.30;;;;;;;17.76;100.00;100175.81;5002462;28;20551;-80
2022/10/24 11:05:48;;;;;;;5.10;3.27;;;;;;;17.80;100.00;100177.34;4990195;28;20044;-80
2022/10/24 11:08:38;;;;;;;7.85;3.45;;;;;;;17.79;100.00;100177.44;4999954;28;20069;-78
2022/10/24 11:11:13;;;;;;;10.15;3.50;;;;;;;17.88;100.00;100168.88;4978309;28;20049;-78
2022/10/24 11:13:47;;;;;;;7.65;3.03;;;;;;;17.87;100.00;100170.69;4986167;28;20092;-80
2022/10/24 11:16:20;;;;;;;6.53;3.47;;;;;;;17.98;100.00;100170.06;4970173;28;20046;-80
2022/10/24 11:18:50;;;;;;;8.23;3.20;;;;;;;17.99;100.00;100166.44;4997917;28;20498;-79
2022/10/24 11:21:20;;;;;;;8.30;3.08;;;;;;;17.96;100.00;100167.47;4996541;28;20041;-79
2022/10/24 11:24:08;;;;;;;6.30;3.30;;;;;;;17.99;100.00;100164.66;4981325;28;20052;-78
2022/10/24 11:26:47;;;;;;;5.97;2.70;;;;;;;17.92;100.00;100163.28;4994574;28;20033;-78
2022/10/24 11:29:13;;;;;;;8.23;3.00;;;;;;;17.98;100.00;100167.38;4977854;28;20034;-78
2022/10/24 11:31:44;;;;;;;8.93;3.20;;;;;;;17.91;100.00;100158.03;4983711;28;20042;-79
2022/10/24 11:34:19;;;;;;;5.10;3.08;;;;;;;17.87;100.00;100157.34;5002731;28;20046;-77
2022/10/24 11:36:53;;;;;;;8.05;3.85;;;;;;;17.86;100.00;100155.63;4971343;28;20601;-77
2022/10/24 11:39:29;;;;;;;6.53;3.00;;;;;;;17.86;100.00;100160.09;5006477;28;20080;-79